sensor_id;sensor_type;location;lat;lon;timestamp;P1;durP1;ratioP1;P2;durP2;ratioP2
34505;SDS011;20748;42.632;23.198;2022-08-25T00:01:15;7.18;;;3.20;;
34505;SDS011;20748;42.632;23.198;2022-08-25T00:03:50;3.97;;;2.45;;
34505;SDS011;20748;42.632;23.198;2022-08-25T00:06:22;4.55;;;2.40;;
34505;SDS011;20748;42.632;23.198;2022-08-25T00:08:55;4.20;;;2.35;;
34505;SDS011;20748;42.632;23.198;2022-08-25T00:11:30;4.25;;;2.67;;
34505;SDS011;20748;42.632;23.198;2022-08-25T00:14:10;4.43;;;2.50;;
34505;SDS011;20748;42.632;23.198;2022-08-25T00:16:45;5.03;;;2.83;;
34505;SDS011;20748;42.632;23.198;2022-08-25T00:19:19;4.45;;;2.25;;
34505;SDS011;20748;42.632;23.198;2022-08-25T00:21:53;3.40;;;2.13;;
34505;SDS011;20748;42.632;23.198;2022-08-25T00:24:27;6.63;;;2.90;;
34505;SDS011;20748;42.632;23.198;2022-08-25T00:26:59;3.28;;;2.47;;
34505;SDS011;20748;42.632;23.198;2022-08-25T00:29:32;7.93;;;2.03;;
34505;SDS011;20748;42.632;23.198;2022-08-25T00:32:06;5.70;;;3.25;;
34505;SDS011;20748;42.632;23.198;2022-08-25T00:34:38;4.30;;;2.13;;
34505;SDS011;20748;42.632;23.198;2022-08-25T00:37:11;7.45;;;3.80;;
34505;SDS011;20748;42.632;23.198;2022-08-25T00:39:43;6.47;;;2.17;;
34505;SDS011;20748;42.632;23.198;2022-08-25T00:42:18;6.30;;;2.25;;
34505;SDS011;20748;42.632;23.198;2022-08-25T00:44:51;11.30;;;2.75;;
34505;SDS011;20748;42.632;23.198;2022-08-25T00:47:24;4.35;;;2.25;;
34505;SDS011;20748;42.632;23.198;2022-08-25T00:49:57;3.50;;;2.10;;
34505;SDS011;20748;42.632;23.198;2022-08-25T00:52:34;3.90;;;2.40;;
34505;SDS011;20748;42.632;23.198;2022-08-25T00:55:10;4.00;;;2.50;;
34505;SDS011;20748;42.632;23.198;2022-08-25T00:57:48;3.42;;;2.53;;
34505;SDS011;20748;42.632;23.198;2022-08-25T01:00:28;5.20;;;2.47;;
34505;SDS011;20748;42.632;23.198;2022-08-25T01:03:04;5.03;;;2.65;;
34505;SDS011;20748;42.632;23.198;2022-08-25T01:05:38;5.18;;;2.78;;
34505;SDS011;20748;42.632;23.198;2022-08-25T01:08:12;4.65;;;2.70;;
34505;SDS011;20748;42.632;23.198;2022-08-25T01:10:47;3.80;;;1.90;;
34505;SDS011;20748;42.632;23.198;2022-08-25T01:13:23;5.03;;;3.17;;
34505;SDS011;20748;42.632;23.198;2022-08-25T01:15:59;5.45;;;3.05;;
34505;SDS011;20748;42.632;23.198;2022-08-25T01:18:44;6.20;;;3.60;;
34505;SDS011;20748;42.632;23.198;2022-08-25T01:21:21;10.02;;;4.63;;
34505;SDS011;20748;42.632;23.198;2022-08-25T01:23:55;7.68;;;3.67;;
34505;SDS011;20748;42.632;23.198;2022-08-25T01:26:32;6.70;;;3.97;;
34505;SDS011;20748;42.632;23.198;2022-08-25T01:29:07;6.93;;;4.45;;
34505;SDS011;20748;42.632;23.198;2022-08-25T01:31:53;6.72;;;3.97;;
34505;SDS011;20748;42.632;23.198;2022-08-25T01:34:28;7.65;;;3.85;;
34505;SDS011;20748;42.632;23.198;2022-08-25T01:37:03;6.47;;;4.28;;
34505;SDS011;20748;42.632;23.198;2022-08-25T01:39:36;8.00;;;4.55;;
34505;SDS011;20748;42.632;23.198;2022-08-25T01:42:16;7.72;;;4.95;;
34505;SDS011;20748;42.632;23.198;2022-08-25T01:44:54;7.65;;;4.43;;
34505;SDS011;20748;42.632;23.198;2022-08-25T01:47:27;6.15;;;3.80;;
34505;SDS011;20748;42.632;23.198;2022-08-25T01:50:00;6.65;;;4.00;;
34505;SDS011;20748;42.632;23.198;2022-08-25T01:52:36;8.23;;;4.30;;
34505;SDS011;20748;42.632;23.198;2022-08-25T01:55:17;6.53;;;4.25;;
34505;SDS011;20748;42.632;23.198;2022-08-25T01:57:49;7.43;;;5.47;;
34505;SDS011;20748;42.632;23.198;2022-08-25T02:00:22;6.75;;;4.47;;
34505;SDS011;20748;42.632;23.198;2022-08-25T02:02:55;6.03;;;4.07;;
34505;SDS011;20748;42.632;23.198;2022-08-25T02:05:28;6.88;;;4.18;;
34505;SDS011;20748;42.632;23.198;2022-08-25T02:08:04;5.50;;;3.67;;
34505;SDS011;20748;42.632;23.198;2022-08-25T02:10:37;6.05;;;4.10;;
34505;SDS011;20748;42.632;23.198;2022-08-25T02:13:10;9.30;;;3.67;;
34505;SDS011;20748;42.632;23.198;2022-08-25T02:15:47;7.13;;;3.92;;
34505;SDS011;20748;42.632;23.198;2022-08-25T02:18:21;5.32;;;4.63;;
34505;SDS011;20748;42.632;23.198;2022-08-25T02:20:54;5.00;;;3.30;;
34505;SDS011;20748;42.632;23.198;2022-08-25T02:23:27;7.75;;;4.40;;
34505;SDS011;20748;42.632;23.198;2022-08-25T02:26:00;4.90;;;3.20;;
34505;SDS011;20748;42.632;23.198;2022-08-25T02:28:32;4.35;;;2.60;;
34505;SDS011;20748;42.632;23.198;2022-08-25T02:31:05;7.40;;;3.47;;
34505;SDS011;20748;42.632;23.198;2022-08-25T02:33:37;6.40;;;4.03;;
34505;SDS011;20748;42.632;23.198;2022-08-25T02:36:10;5.38;;;3.28;;
34505;SDS011;20748;42.632;23.198;2022-08-25T02:38:43;5.47;;;3.40;;
34505;SDS011;20748;42.632;23.198;2022-08-25T02:41:17;4.97;;;3.70;;
34505;SDS011;20748;42.632;23.198;2022-08-25T02:43:52;6.85;;;3.90;;
34505;SDS011;20748;42.632;23.198;2022-08-25T02:46:25;7.80;;;3.53;;
34505;SDS011;20748;42.632;23.198;2022-08-25T02:48:59;6.32;;;3.95;;
34505;SDS011;20748;42.632;23.198;2022-08-25T02:51:32;4.88;;;3.47;;
34505;SDS011;20748;42.632;23.198;2022-08-25T02:54:05;5.38;;;3.17;;
34505;SDS011;20748;42.632;23.198;2022-08-25T02:56:38;7.35;;;4.15;;
34505;SDS011;20748;42.632;23.198;2022-08-25T02:59:11;4.93;;;3.60;;
34505;SDS011;20748;42.632;23.198;2022-08-25T03:01:44;6.35;;;4.30;;
34505;SDS011;20748;42.632;23.198;2022-08-25T03:04:16;6.25;;;3.63;;
34505;SDS011;20748;42.632;23.198;2022-08-25T03:06:49;5.35;;;2.88;;
34505;SDS011;20748;42.632;23.198;2022-08-25T03:09:22;7.43;;;3.90;;
34505;SDS011;20748;42.632;23.198;2022-08-25T03:11:55;6.63;;;3.90;;
34505;SDS011;20748;42.632;23.198;2022-08-25T03:14:27;4.32;;;3.17;;
34505;SDS011;20748;42.632;23.198;2022-08-25T03:17:00;6.97;;;3.60;;
34505;SDS011;20748;42.632;23.198;2022-08-25T03:19:33;6.97;;;4.18;;
34505;SDS011;20748;42.632;23.198;2022-08-25T03:22:06;7.68;;;3.40;;
34505;SDS011;20748;42.632;23.198;2022-08-25T03:24:39;5.80;;;2.80;;
34505;SDS011;20748;42.632;23.198;2022-08-25T03:27:12;7.03;;;3.25;;
34505;SDS011;20748;42.632;23.198;2022-08-25T03:29:44;5.63;;;3.35;;
34505;SDS011;20748;42.632;23.198;2022-08-25T03:32:17;8.95;;;3.38;;
34505;SDS011;20748;42.632;23.198;2022-08-25T03:34:49;5.13;;;3.13;;
34505;SDS011;20748;42.632;23.198;2022-08-25T03:37:22;4.47;;;2.70;;
34505;SDS011;20748;42.632;23.198;2022-08-25T03:39:55;5.50;;;3.53;;
34505;SDS011;20748;42.632;23.198;2022-08-25T03:42:28;4.53;;;2.88;;
34505;SDS011;20748;42.632;23.198;2022-08-25T03:45:00;7.30;;;2.53;;
34505;SDS011;20748;42.632;23.198;2022-08-25T03:47:33;4.43;;;3.08;;
34505;SDS011;20748;42.632;23.198;2022-08-25T03:50:07;6.13;;;3.55;;
34505;SDS011;20748;42.632;23.198;2022-08-25T03:52:41;5.00;;;2.90;;
34505;SDS011;20748;42.632;23.198;2022-08-25T03:55:14;6.40;;;2.90;;
34505;SDS011;20748;42.632;23.198;2022-08-25T03:57:47;6.72;;;4.00;;
34505;SDS011;20748;42.632;23.198;2022-08-25T04:00:21;4.68;;;3.10;;
34505;SDS011;20748;42.632;23.198;2022-08-25T04:02:54;5.05;;;3.58;;
34505;SDS011;20748;42.632;23.198;2022-08-25T04:05:26;5.15;;;2.97;;
34505;SDS011;20748;42.632;23.198;2022-08-25T04:07:59;5.40;;;3.05;;
34505;SDS011;20748;42.632;23.198;2022-08-25T04:10:32;5.13;;;3.10;;
34505;SDS011;20748;42.632;23.198;2022-08-25T04:13:05;5.35;;;3.20;;
34505;SDS011;20748;42.632;23.198;2022-08-25T04:15:40;6.55;;;3.25;;
34505;SDS011;20748;42.632;23.198;2022-08-25T04:18:13;7.82;;;3.42;;
34505;SDS011;20748;42.632;23.198;2022-08-25T04:20:46;7.82;;;4.13;;
34505;SDS011;20748;42.632;23.198;2022-08-25T04:23:18;6.15;;;3.22;;
34505;SDS011;20748;42.632;23.198;2022-08-25T04:25:51;6.95;;;3.90;;
34505;SDS011;20748;42.632;23.198;2022-08-25T04:28:24;7.07;;;3.30;;
34505;SDS011;20748;42.632;23.198;2022-08-25T04:30:56;5.30;;;3.25;;
34505;SDS011;20748;42.632;23.198;2022-08-25T04:33:29;6.47;;;4.30;;
34505;SDS011;20748;42.632;23.198;2022-08-25T04:36:02;7.63;;;4.32;;
34505;SDS011;20748;42.632;23.198;2022-08-25T04:38:40;7.28;;;3.70;;
34505;SDS011;20748;42.632;23.198;2022-08-25T04:41:15;7.55;;;3.83;;
34505;SDS011;20748;42.632;23.198;2022-08-25T04:43:49;7.00;;;4.25;;
34505;SDS011;20748;42.632;23.198;2022-08-25T04:46:23;5.57;;;3.35;;
34505;SDS011;20748;42.632;23.198;2022-08-25T04:48:57;9.48;;;4.88;;
34505;SDS011;20748;42.632;23.198;2022-08-25T04:51:32;7.85;;;4.05;;
34505;SDS011;20748;42.632;23.198;2022-08-25T04:54:08;7.50;;;4.45;;
34505;SDS011;20748;42.632;23.198;2022-08-25T04:56:43;6.43;;;3.65;;
34505;SDS011;20748;42.632;23.198;2022-08-25T04:59:15;6.50;;;3.85;;
34505;SDS011;20748;42.632;23.198;2022-08-25T05:01:49;7.57;;;3.80;;
34505;SDS011;20748;42.632;23.198;2022-08-25T05:04:23;9.50;;;4.28;;
34505;SDS011;20748;42.632;23.198;2022-08-25T05:07:00;7.20;;;4.07;;
34505;SDS011;20748;42.632;23.198;2022-08-25T05:09:33;5.80;;;4.10;;
34505;SDS011;20748;42.632;23.198;2022-08-25T05:12:06;5.10;;;2.95;;
34505;SDS011;20748;42.632;23.198;2022-08-25T05:14:41;7.45;;;3.63;;
34505;SDS011;20748;42.632;23.198;2022-08-25T05:17:14;6.05;;;3.05;;
34505;SDS011;20748;42.632;23.198;2022-08-25T05:19:46;3.95;;;2.83;;
34505;SDS011;20748;42.632;23.198;2022-08-25T05:22:18;5.60;;;3.17;;
34505;SDS011;20748;42.632;23.198;2022-08-25T05:24:51;4.53;;;3.05;;
34505;SDS011;20748;42.632;23.198;2022-08-25T05:27:24;6.88;;;3.83;;
34505;SDS011;20748;42.632;23.198;2022-08-25T05:29:56;7.43;;;2.92;;
34505;SDS011;20748;42.632;23.198;2022-08-25T05:32:29;8.00;;;3.90;;
34505;SDS011;20748;42.632;23.198;2022-08-25T05:35:01;5.80;;;3.17;;
34505;SDS011;20748;42.632;23.198;2022-08-25T05:37:34;5.38;;;2.80;;
34505;SDS011;20748;42.632;23.198;2022-08-25T05:40:08;5.45;;;3.05;;
34505;SDS011;20748;42.632;23.198;2022-08-25T05:42:42;3.72;;;3.05;;
34505;SDS011;20748;42.632;23.198;2022-08-25T05:45:14;6.07;;;3.42;;
34505;SDS011;20748;42.632;23.198;2022-08-25T05:47:51;5.78;;;3.40;;
34505;SDS011;20748;42.632;23.198;2022-08-25T05:50:24;5.63;;;2.67;;
34505;SDS011;20748;42.632;23.198;2022-08-25T05:52:56;4.88;;;2.90;;
34505;SDS011;20748;42.632;23.198;2022-08-25T05:55:29;7.03;;;2.90;;
34505;SDS011;20748;42.632;23.198;2022-08-25T05:58:02;4.53;;;3.28;;
34505;SDS011;20748;42.632;23.198;2022-08-25T06:00:35;4.53;;;2.83;;
34505;SDS011;20748;42.632;23.198;2022-08-25T06:03:08;4.38;;;2.60;;
34505;SDS011;20748;42.632;23.198;2022-08-25T06:05:41;5.32;;;2.75;;
34505;SDS011;20748;42.632;23.198;2022-08-25T06:08:13;4.78;;;3.10;;
34505;SDS011;20748;42.632;23.198;2022-08-25T06:10:50;6.05;;;2.60;;
34505;SDS011;20748;42.632;23.198;2022-08-25T06:13:24;6.47;;;3.60;;
34505;SDS011;20748;42.632;23.198;2022-08-25T06:16:00;6.30;;;3.25;;
34505;SDS011;20748;42.632;23.198;2022-08-25T06:18:32;4.88;;;2.78;;
34505;SDS011;20748;42.632;23.198;2022-08-25T06:21:08;4.28;;;2.50;;
34505;SDS011;20748;42.632;23.198;2022-08-25T06:23:43;3.70;;;2.80;;
34505;SDS011;20748;42.632;23.198;2022-08-25T06:26:15;8.10;;;3.28;;
34505;SDS011;20748;42.632;23.198;2022-08-25T06:28:53;3.83;;;2.65;;
34505;SDS011;20748;42.632;23.198;2022-08-25T06:31:25;10.30;;;3.53;;
34505;SDS011;20748;42.632;23.198;2022-08-25T06:33:58;4.88;;;3.03;;
34505;SDS011;20748;42.632;23.198;2022-08-25T06:36:30;5.13;;;2.53;;
34505;SDS011;20748;42.632;23.198;2022-08-25T06:39:04;5.43;;;2.88;;
34505;SDS011;20748;42.632;23.198;2022-08-25T06:41:36;5.30;;;3.22;;
34505;SDS011;20748;42.632;23.198;2022-08-25T06:44:11;4.88;;;2.50;;
34505;SDS011;20748;42.632;23.198;2022-08-25T06:46:43;4.00;;;2.55;;
34505;SDS011;20748;42.632;23.198;2022-08-25T06:49:16;5.00;;;2.70;;
34505;SDS011;20748;42.632;23.198;2022-08-25T06:51:48;5.55;;;2.42;;
34505;SDS011;20748;42.632;23.198;2022-08-25T06:54:21;3.33;;;2.35;;
34505;SDS011;20748;42.632;23.198;2022-08-25T06:56:53;5.50;;;3.65;;
34505;SDS011;20748;42.632;23.198;2022-08-25T06:59:26;4.93;;;2.75;;
34505;SDS011;20748;42.632;23.198;2022-08-25T07:02:04;5.53;;;3.03;;
34505;SDS011;20748;42.632;23.198;2022-08-25T07:04:37;6.53;;;2.70;;
34505;SDS011;20748;42.632;23.198;2022-08-25T07:07:10;5.78;;;3.15;;
34505;SDS011;20748;42.632;23.198;2022-08-25T07:09:42;5.10;;;3.25;;
34505;SDS011;20748;42.632;23.198;2022-08-25T07:12:15;6.30;;;3.83;;
34505;SDS011;20748;42.632;23.198;2022-08-25T07:14:48;4.57;;;2.95;;
34505;SDS011;20748;42.632;23.198;2022-08-25T07:17:40;7.03;;;2.92;;
34505;SDS011;20748;42.632;23.198;2022-08-25T07:20:15;4.95;;;2.92;;
34505;SDS011;20748;42.632;23.198;2022-08-25T07:22:47;8.18;;;3.42;;
34505;SDS011;20748;42.632;23.198;2022-08-25T07:25:20;6.50;;;3.03;;
34505;SDS011;20748;42.632;23.198;2022-08-25T07:27:52;4.22;;;2.38;;
34505;SDS011;20748;42.632;23.198;2022-08-25T07:30:30;4.90;;;3.58;;
34505;SDS011;20748;42.632;23.198;2022-08-25T07:33:03;6.30;;;3.05;;
34505;SDS011;20748;42.632;23.198;2022-08-25T07:35:38;4.43;;;2.92;;
34505;SDS011;20748;42.632;23.198;2022-08-25T07:38:14;5.28;;;2.70;;
34505;SDS011;20748;42.632;23.198;2022-08-25T07:40:52;7.50;;;2.47;;
34505;SDS011;20748;42.632;23.198;2022-08-25T07:43:32;5.45;;;3.17;;
34505;SDS011;20748;42.632;23.198;2022-08-25T07:46:07;4.25;;;2.40;;
34505;SDS011;20748;42.632;23.198;2022-08-25T07:48:41;4.30;;;2.90;;
34505;SDS011;20748;42.632;23.198;2022-08-25T07:51:16;5.38;;;2.85;;
34505;SDS011;20748;42.632;23.198;2022-08-25T07:53:48;4.10;;;2.50;;
34505;SDS011;20748;42.632;23.198;2022-08-25T07:56:21;4.03;;;2.35;;
34505;SDS011;20748;42.632;23.198;2022-08-25T07:58:53;3.75;;;2.50;;
34505;SDS011;20748;42.632;23.198;2022-08-25T08:01:27;5.35;;;2.67;;
34505;SDS011;20748;42.632;23.198;2022-08-25T08:04:00;7.65;;;3.28;;
34505;SDS011;20748;42.632;23.198;2022-08-25T08:06:34;3.00;;;2.35;;
34505;SDS011;20748;42.632;23.198;2022-08-25T08:09:07;2.90;;;1.63;;
34505;SDS011;20748;42.632;23.198;2022-08-25T08:11:39;5.78;;;2.70;;
34505;SDS011;20748;42.632;23.198;2022-08-25T08:14:24;3.40;;;2.17;;
34505;SDS011;20748;42.632;23.198;2022-08-25T08:16:58;3.55;;;2.28;;
34505;SDS011;20748;42.632;23.198;2022-08-25T08:19:30;4.78;;;2.38;;
34505;SDS011;20748;42.632;23.198;2022-08-25T08:22:03;6.45;;;3.53;;
34505;SDS011;20748;42.632;23.198;2022-08-25T08:24:36;3.50;;;2.10;;
34505;SDS011;20748;42.632;23.198;2022-08-25T08:29:57;4.10;;;2.03;;
34505;SDS011;20748;42.632;23.198;2022-08-25T08:32:30;6.45;;;3.47;;
34505;SDS011;20748;42.632;23.198;2022-08-25T08:35:23;4.30;;;2.55;;
34505;SDS011;20748;42.632;23.198;2022-08-25T08:37:56;6.93;;;3.75;;
34505;SDS011;20748;42.632;23.198;2022-08-25T08:40:28;8.32;;;2.75;;
34505;SDS011;20748;42.632;23.198;2022-08-25T08:43:05;4.97;;;2.35;;
34505;SDS011;20748;42.632;23.198;2022-08-25T08:45:50;5.50;;;1.70;;
34505;SDS011;20748;42.632;23.198;2022-08-25T08:48:37;4.90;;;2.40;;
34505;SDS011;20748;42.632;23.198;2022-08-25T08:51:18;3.72;;;2.22;;
34505;SDS011;20748;42.632;23.198;2022-08-25T08:53:55;5.95;;;2.83;;
34505;SDS011;20748;42.632;23.198;2022-08-25T08:56:33;7.97;;;2.60;;
34505;SDS011;20748;42.632;23.198;2022-08-25T08:59:17;4.05;;;2.58;;
34505;SDS011;20748;42.632;23.198;2022-08-25T09:01:52;4.80;;;2.80;;
34505;SDS011;20748;42.632;23.198;2022-08-25T09:04:34;8.18;;;3.35;;
34505;SDS011;20748;42.632;23.198;2022-08-25T09:07:15;6.68;;;4.10;;
34505;SDS011;20748;42.632;23.198;2022-08-25T09:09:51;4.07;;;2.60;;
34505;SDS011;20748;42.632;23.198;2022-08-25T09:12:25;4.07;;;2.47;;
34505;SDS011;20748;42.632;23.198;2022-08-25T09:15:07;4.03;;;2.78;;
34505;SDS011;20748;42.632;23.198;2022-08-25T09:17:49;4.65;;;2.72;;
34505;SDS011;20748;42.632;23.198;2022-08-25T09:20:37;9.55;;;2.67;;
34505;SDS011;20748;42.632;23.198;2022-08-25T09:23:28;4.10;;;2.13;;
34505;SDS011;20748;42.632;23.198;2022-08-25T09:26:17;5.10;;;2.40;;
34505;SDS011;20748;42.632;23.198;2022-08-25T09:29:00;6.13;;;2.75;;
34505;SDS011;20748;42.632;23.198;2022-08-25T09:31:38;6.28;;;2.40;;
34505;SDS011;20748;42.632;23.198;2022-08-25T09:34:15;3.67;;;1.70;;
34505;SDS011;20748;42.632;23.198;2022-08-25T09:36:50;4.82;;;1.63;;
34505;SDS011;20748;42.632;23.198;2022-08-25T09:39:23;2.20;;;1.70;;
34505;SDS011;20748;42.632;23.198;2022-08-25T09:41:58;4.90;;;1.77;;
34505;SDS011;20748;42.632;23.198;2022-08-25T09:44:32;2.45;;;1.75;;
34505;SDS011;20748;42.632;23.198;2022-08-25T09:47:13;3.55;;;2.08;;
34505;SDS011;20748;42.632;23.198;2022-08-25T09:49:55;4.30;;;2.55;;
34505;SDS011;20748;42.632;23.198;2022-08-25T09:52:33;12.90;;;2.88;;
34505;SDS011;20748;42.632;23.198;2022-08-25T09:55:22;7.47;;;2.70;;
34505;SDS011;20748;42.632;23.198;2022-08-25T09:57:58;3.40;;;1.90;;
34505;SDS011;20748;42.632;23.198;2022-08-25T10:00:31;5.35;;;2.92;;
34505;SDS011;20748;42.632;23.198;2022-08-25T10:03:07;5.25;;;1.75;;
34505;SDS011;20748;42.632;23.198;2022-08-25T10:08:34;5.80;;;2.78;;
34505;SDS011;20748;42.632;23.198;2022-08-25T10:11:11;7.53;;;2.03;;
34505;SDS011;20748;42.632;23.198;2022-08-25T10:13:46;4.15;;;2.20;;
34505;SDS011;20748;42.632;23.198;2022-08-25T10:16:23;4.80;;;2.08;;
34505;SDS011;20748;42.632;23.198;2022-08-25T10:19:06;2.50;;;1.70;;
34505;SDS011;20748;42.632;23.198;2022-08-25T10:21:41;3.20;;;1.50;;
34505;SDS011;20748;42.632;23.198;2022-08-25T10:24:15;3.42;;;1.88;;
34505;SDS011;20748;42.632;23.198;2022-08-25T10:26:51;2.72;;;1.63;;
34505;SDS011;20748;42.632;23.198;2022-08-25T10:29:37;3.92;;;1.40;;
34505;SDS011;20748;42.632;23.198;2022-08-25T10:32:29;2.20;;;1.45;;
34505;SDS011;20748;42.632;23.198;2022-08-25T10:35:08;3.55;;;1.15;;
34505;SDS011;20748;42.632;23.198;2022-08-25T10:37:46;3.15;;;1.85;;
34505;SDS011;20748;42.632;23.198;2022-08-25T10:40:35;3.05;;;1.77;;
34505;SDS011;20748;42.632;23.198;2022-08-25T10:43:16;2.92;;;1.45;;
34505;SDS011;20748;42.632;23.198;2022-08-25T10:46:02;3.35;;;1.05;;
34505;SDS011;20748;42.632;23.198;2022-08-25T10:48:47;1.00;;;0.80;;
34505;SDS011;20748;42.632;23.198;2022-08-25T10:54:30;6.00;;;2.13;;
34505;SDS011;20748;42.632;23.198;2022-08-25T10:57:14;2.45;;;1.25;;
34505;SDS011;20748;42.632;23.198;2022-08-25T10:59:58;1.90;;;0.93;;
34505;SDS011;20748;42.632;23.198;2022-08-25T11:02:42;5.25;;;1.52;;
34505;SDS011;20748;42.632;23.198;2022-08-25T11:05:33;2.05;;;1.60;;
34505;SDS011;20748;42.632;23.198;2022-08-25T11:08:12;4.97;;;1.38;;
34505;SDS011;20748;42.632;23.198;2022-08-25T11:10:48;3.97;;;1.40;;
34505;SDS011;20748;42.632;23.198;2022-08-25T11:13:25;5.03;;;1.20;;
34505;SDS011;20748;42.632;23.198;2022-08-25T11:16:11;1.80;;;1.38;;
34505;SDS011;20748;42.632;23.198;2022-08-25T11:21:26;3.78;;;1.88;;
34505;SDS011;20748;42.632;23.198;2022-08-25T11:24:21;2.47;;;1.15;;
34505;SDS011;20748;42.632;23.198;2022-08-25T11:27:14;2.78;;;1.60;;
34505;SDS011;20748;42.632;23.198;2022-08-25T11:29:58;4.35;;;1.70;;
34505;SDS011;20748;42.632;23.198;2022-08-25T11:32:38;5.00;;;1.73;;
34505;SDS011;20748;42.632;23.198;2022-08-25T11:35:15;4.05;;;1.80;;
34505;SDS011;20748;42.632;23.198;2022-08-25T11:37:52;5.97;;;2.15;;
34505;SDS011;20748;42.632;23.198;2022-08-25T11:40:42;6.43;;;1.73;;
34505;SDS011;20748;42.632;23.198;2022-08-25T11:43:46;1.80;;;1.00;;
34505;SDS011;20748;42.632;23.198;2022-08-25T11:46:34;6.90;;;2.42;;
34505;SDS011;20748;42.632;23.198;2022-08-25T11:49:29;3.05;;;1.63;;
34505;SDS011;20748;42.632;23.198;2022-08-25T11:52:37;3.40;;;1.77;;
34505;SDS011;20748;42.632;23.198;2022-08-25T11:55:17;9.30;;;1.60;;
34505;SDS011;20748;42.632;23.198;2022-08-25T12:00:52;3.53;;;1.77;;
34505;SDS011;20748;42.632;23.198;2022-08-25T12:10:12;5.00;;;1.50;;
34505;SDS011;20748;42.632;23.198;2022-08-25T12:13:04;2.58;;;1.73;;
34505;SDS011;20748;42.632;23.198;2022-08-25T12:15:55;4.97;;;1.40;;
34505;SDS011;20748;42.632;23.198;2022-08-25T12:18:40;2.95;;;1.77;;
34505;SDS011;20748;42.632;23.198;2022-08-25T12:21:31;4.15;;;2.33;;
34505;SDS011;20748;42.632;23.198;2022-08-25T12:24:11;2.15;;;1.50;;
34505;SDS011;20748;42.632;23.198;2022-08-25T12:26:50;3.60;;;1.75;;
34505;SDS011;20748;42.632;23.198;2022-08-25T12:29:31;5.93;;;1.65;;
34505;SDS011;20748;42.632;23.198;2022-08-25T12:32:35;2.60;;;1.65;;
34505;SDS011;20748;42.632;23.198;2022-08-25T12:35:22;4.22;;;1.63;;
34505;SDS011;20748;42.632;23.198;2022-08-25T12:38:02;3.30;;;1.52;;
34505;SDS011;20748;42.632;23.198;2022-08-25T12:40:38;2.05;;;1.38;;
34505;SDS011;20748;42.632;23.198;2022-08-25T12:43:30;2.95;;;1.40;;
34505;SDS011;20748;42.632;23.198;2022-08-25T12:49:27;4.78;;;2.38;;
34505;SDS011;20748;42.632;23.198;2022-08-25T12:52:04;2.42;;;1.73;;
34505;SDS011;20748;42.632;23.198;2022-08-25T12:54:41;2.10;;;1.30;;
34505;SDS011;20748;42.632;23.198;2022-08-25T12:57:32;3.05;;;1.80;;
34505;SDS011;20748;42.632;23.198;2022-08-25T13:00:14;2.35;;;1.77;;
34505;SDS011;20748;42.632;23.198;2022-08-25T13:05:57;3.55;;;1.75;;
34505;SDS011;20748;42.632;23.198;2022-08-25T13:08:51;3.83;;;2.10;;
34505;SDS011;20748;42.632;23.198;2022-08-25T13:11:40;3.53;;;1.52;;
34505;SDS011;20748;42.632;23.198;2022-08-25T13:14:21;4.60;;;2.60;;
34505;SDS011;20748;42.632;23.198;2022-08-25T13:17:08;4.05;;;1.30;;
34505;SDS011;20748;42.632;23.198;2022-08-25T13:19:41;2.65;;;1.25;;
34505;SDS011;20748;42.632;23.198;2022-08-25T13:22:14;3.45;;;2.42;;
34505;SDS011;20748;42.632;23.198;2022-08-25T13:24:48;3.95;;;1.58;;
34505;SDS011;20748;42.632;23.198;2022-08-25T13:27:23;3.22;;;1.92;;
34505;SDS011;20748;42.632;23.198;2022-08-25T13:29:59;1.38;;;1.10;;
34505;SDS011;20748;42.632;23.198;2022-08-25T13:32:35;3.20;;;1.73;;
34505;SDS011;20748;42.632;23.198;2022-08-25T13:35:11;4.32;;;1.55;;
34505;SDS011;20748;42.632;23.198;2022-08-25T13:37:51;4.55;;;1.52;;
34505;SDS011;20748;42.632;23.198;2022-08-25T13:40:24;3.40;;;1.58;;
34505;SDS011;20748;42.632;23.198;2022-08-25T13:43:00;3.20;;;1.85;;
34505;SDS011;20748;42.632;23.198;2022-08-25T13:45:37;1.98;;;1.40;;
34505;SDS011;20748;42.632;23.198;2022-08-25T13:58:12;3.35;;;1.88;;
34505;SDS011;20748;42.632;23.198;2022-08-25T14:01:00;4.70;;;2.08;;
34505;SDS011;20748;42.632;23.198;2022-08-25T14:03:57;2.97;;;1.50;;
34505;SDS011;20748;42.632;23.198;2022-08-25T14:07:06;1.20;;;1.05;;
34505;SDS011;20748;42.632;23.198;2022-08-25T14:09:45;2.28;;;1.42;;
34505;SDS011;20748;42.632;23.198;2022-08-25T14:12:31;3.25;;;1.27;;
34505;SDS011;20748;42.632;23.198;2022-08-25T14:15:11;3.08;;;1.27;;
34505;SDS011;20748;42.632;23.198;2022-08-25T14:17:59;1.15;;;0.82;;
34505;SDS011;20748;42.632;23.198;2022-08-25T14:20:35;3.97;;;1.98;;
34505;SDS011;20748;42.632;23.198;2022-08-25T14:23:16;2.92;;;1.40;;
34505;SDS011;20748;42.632;23.198;2022-08-25T14:25:52;5.30;;;1.60;;
34505;SDS011;20748;42.632;23.198;2022-08-25T14:28:27;3.78;;;1.63;;
34505;SDS011;20748;42.632;23.198;2022-08-25T14:31:04;3.85;;;1.80;;
34505;SDS011;20748;42.632;23.198;2022-08-25T14:33:40;3.00;;;1.10;;
34505;SDS011;20748;42.632;23.198;2022-08-25T14:36:21;4.65;;;2.35;;
34505;SDS011;20748;42.632;23.198;2022-08-25T14:38:53;1.67;;;1.35;;
34505;SDS011;20748;42.632;23.198;2022-08-25T14:41:26;3.58;;;1.35;;
34505;SDS011;20748;42.632;23.198;2022-08-25T14:43:59;3.42;;;1.08;;
34505;SDS011;20748;42.632;23.198;2022-08-25T14:46:34;4.13;;;1.98;;
34505;SDS011;20748;42.632;23.198;2022-08-25T14:49:15;3.38;;;1.27;;
34505;SDS011;20748;42.632;23.198;2022-08-25T14:51:56;4.13;;;1.38;;
34505;SDS011;20748;42.632;23.198;2022-08-25T14:54:35;3.22;;;1.33;;
34505;SDS011;20748;42.632;23.198;2022-08-25T14:57:08;5.53;;;1.80;;
34505;SDS011;20748;42.632;23.198;2022-08-25T14:59:41;2.08;;;1.00;;
34505;SDS011;20748;42.632;23.198;2022-08-25T15:02:16;2.40;;;1.20;;
34505;SDS011;20748;42.632;23.198;2022-08-25T15:04:51;4.45;;;1.83;;
34505;SDS011;20748;42.632;23.198;2022-08-25T15:07:28;2.28;;;1.20;;
34505;SDS011;20748;42.632;23.198;2022-08-25T15:10:21;3.08;;;1.48;;
34505;SDS011;20748;42.632;23.198;2022-08-25T15:12:55;2.78;;;1.30;;
34505;SDS011;20748;42.632;23.198;2022-08-25T15:15:29;2.88;;;1.33;;
34505;SDS011;20748;42.632;23.198;2022-08-25T15:18:04;5.60;;;1.55;;
34505;SDS011;20748;42.632;23.198;2022-08-25T15:20:37;2.40;;;1.30;;
34505;SDS011;20748;42.632;23.198;2022-08-25T15:23:09;3.03;;;1.35;;
34505;SDS011;20748;42.632;23.198;2022-08-25T15:25:42;2.35;;;0.90;;
34505;SDS011;20748;42.632;23.198;2022-08-25T15:28:18;5.28;;;1.88;;
34505;SDS011;20748;42.632;23.198;2022-08-25T15:30:53;2.53;;;1.50;;
34505;SDS011;20748;42.632;23.198;2022-08-25T15:33:26;4.07;;;1.52;;
34505;SDS011;20748;42.632;23.198;2022-08-25T15:35:59;3.92;;;1.20;;
34505;SDS011;20748;42.632;23.198;2022-08-25T15:38:31;1.70;;;0.90;;
34505;SDS011;20748;42.632;23.198;2022-08-25T15:41:04;1.98;;;1.15;;
34505;SDS011;20748;42.632;23.198;2022-08-25T15:43:39;4.25;;;1.77;;
34505;SDS011;20748;42.632;23.198;2022-08-25T15:46:14;3.22;;;2.17;;
34505;SDS011;20748;42.632;23.198;2022-08-25T15:48:51;3.33;;;1.63;;
34505;SDS011;20748;42.632;23.198;2022-08-25T15:51:23;2.35;;;1.38;;
34505;SDS011;20748;42.632;23.198;2022-08-25T15:53:57;2.70;;;1.15;;
34505;SDS011;20748;42.632;23.198;2022-08-25T15:56:30;2.92;;;1.55;;
34505;SDS011;20748;42.632;23.198;2022-08-25T15:59:02;3.15;;;1.52;;
34505;SDS011;20748;42.632;23.198;2022-08-25T16:01:40;5.03;;;2.20;;
34505;SDS011;20748;42.632;23.198;2022-08-25T16:04:15;4.13;;;2.22;;
34505;SDS011;20748;42.632;23.198;2022-08-25T16:06:49;4.15;;;1.35;;